Search for airport 
image banner adimage banner adimage banner ad
image banner ad

CL66 - Camp 2

Located in La Canada, United States

ICAO - CL66, IATA -

Data provided by Airmate  

General information

Coordinates: N34°11'50" W118°10'26"
Elevation is 1120 feet MSL.
Magnetic variation is 14° East
View others Airports in California

Operational data

Special qualification required
Current time UTC:
Current local time:
Weather at : KBUR - Bob Hope ( 17 km )
METAR: KBUR 291953Z 17008KT 10SM CLR 32/13 A2989 RMK AO2 SLP106 T03170133 $
TAF: KBUR 291736Z 2918/3018 17004KT P6SM SKC FM291900 17009KT P6SM SKC FM300200 13006KT P6SM SKC FM300800 VRB03KT P6SM SKC
View NOTAMs / SUP AIP / TFR affecting this airport [VIEW]
Communications frequencies: [VIEW]

Runways:

Airport contact information

Address: La Canada United States

Satellite view of CL66